Time;durP1;ratioP1;P1;durP2;ratioP2;P2;SDS_P1;SDS_P2;PMS_P1;PMS_P2;Temp;Humidity;BMP_temperature;BMP_pressure;BME280_temperature;BME280_humidity;BME280_pressure;Samples;Min_cycle;Max_cycle;Signal;HPM_P1;HPM_P2
2021/09/01 00:02:06;;;;;;;17.40;10.05;;;13.70;99.90;;;;;;4990700;28;20038;-80
2021/09/01 00:04:32;;;;;;;17.20;10.38;;;14.20;99.90;;;;;;5002346;28;20060;-81
2021/09/01 00:06:57;;;;;;;20.38;10.38;;;16.20;99.90;;;;;;4990260;28;20484;-82
2021/09/01 00:09:23;;;;;;;20.75;12.00;;;;;;;;;;4987628;28;20045;-82
2021/09/01 00:11:51;;;;;;;16.17;10.05;;;13.70;99.90;;;;;;5007602;28;20061;-80
2021/09/01 00:14:16;;;;;;;20.15;10.75;;;13.70;99.90;;;;;;4991442;28;20034;-83
2021/09/01 00:16:42;;;;;;;18.23;9.98;;;13.90;99.90;;;;;;5009424;28;20448;-80
2021/09/01 00:19:09;;;;;;;18.65;10.70;;;13.70;99.90;;;;;;5008072;28;20042;-84
2021/09/01 00:21:35;;;;;;;20.15;10.48;;;13.70;99.90;;;;;;4990355;28;20026;-84
2021/09/01 00:24:01;;;;;;;19.83;10.60;;;13.70;99.90;;;;;;4995810;28;20030;-84
2021/09/01 00:26:28;;;;;;;18.48;11.05;;;13.60;99.90;;;;;;4986786;28;20446;-83
2021/09/01 00:28:54;;;;;;;21.92;11.15;;;14.50;99.90;;;;;;4993144;28;20085;-82
2021/09/01 00:31:20;;;;;;;23.42;10.73;;;16.20;99.90;;;;;;4991454;28;20022;-83
2021/09/01 00:33:46;;;;;;;20.48;9.90;;;13.60;99.90;;;;;;4989102;28;20026;-84
2021/09/01 00:36:12;;;;;;;19.48;10.75;;;13.60;99.90;;;;;;4988195;28;20024;-84
2021/09/01 00:38:38;;;;;;;20.48;9.95;;;;;;;;;;5006254;28;20026;-82
2021/09/01 00:41:04;;;;;;;19.08;10.00;;;13.60;99.90;;;;;;5003439;28;20022;-83
2021/09/01 00:43:30;;;;;;;25.85;12.27;;;;;;;;;;5002380;28;20514;-83
2021/09/01 00:45:56;;;;;;;17.70;10.02;;;13.60;99.90;;;;;;5010575;28;20033;-83
2021/09/01 00:48:22;;;;;;;18.17;10.43;;;15.50;99.90;;;;;;5001791;28;20034;-85
2021/09/01 00:50:53;;;;;;;16.25;10.10;;;13.60;99.90;;;;;;4992097;28;20042;-83
2021/09/01 00:53:19;;;;;;;20.30;10.32;;;13.50;99.90;;;;;;4992282;28;20033;-82
2021/09/01 00:55:46;;;;;;;15.75;8.88;;;13.50;99.90;;;;;;4999152;28;20574;-80
2021/09/01 00:58:22;;;;;;;18.92;10.60;;;13.50;99.90;;;;;;5007774;28;20037;-85
2021/09/01 01:03:33;;;;;;;20.25;11.10;;;15.20;99.90;;;;;;5008583;28;20102;-85
2021/09/01 01:05:59;;;;;;;18.48;10.48;;;13.40;99.90;;;;;;5001054;28;20046;-83
2021/09/01 01:08:31;;;;;;;19.38;10.10;;;13.80;99.90;;;;;;5005475;28;20072;-84
2021/09/01 01:10:59;;;;;;;16.50;9.27;;;13.20;99.90;;;;;;4991250;28;20124;-82
2021/09/01 01:13:28;;;;;;;15.65;9.02;;;13.20;99.90;;;;;;4989824;28;20369;-85
2021/09/01 01:15:55;;;;;;;19.48;10.32;;;13.20;99.90;;;;;;4986059;28;20030;-84
2021/09/01 01:18:21;;;;;;;19.70;10.90;;;13.20;99.90;;;;;;4988612;28;20041;-82
2021/09/01 01:20:48;;;;;;;17.35;9.25;;;13.20;99.90;;;;;;5006661;28;20037;-83
2021/09/01 01:23:15;;;;;;;17.75;9.57;;;13.10;99.90;;;;;;4988512;28;20117;-82
2021/09/01 01:25:41;;;;;;;18.60;10.38;;;14.80;99.90;;;;;;4994592;28;20030;-83
2021/09/01 01:28:08;;;;;;;17.88;10.15;;;13.10;99.90;;;;;;4992141;28;20026;-84
2021/09/01 01:30:34;;;;;;;17.70;10.35;;;15.00;99.90;;;;;;4997558;28;20030;-86
2021/09/01 01:33:00;;;;;;;17.15;10.27;;;;;;;;;;4991491;28;20070;-86
2021/09/01 01:35:33;;;;;;;18.20;10.13;;;13.10;99.90;;;;;;5003831;28;20030;-82
2021/09/01 01:38:00;;;;;;;17.05;9.75;;;13.10;99.90;;;;;;5003166;28;20070;-84
2021/09/01 01:40:27;;;;;;;18.45;10.13;;;13.10;99.90;;;;;;5004587;28;20084;-85
2021/09/01 01:42:54;;;;;;;19.13;11.02;;;13.00;99.90;;;;;;4992773;28;20018;-84
2021/09/01 01:45:21;;;;;;;17.40;9.75;;;13.00;99.90;;;;;;4992302;28;20026;-84
2021/09/01 01:47:47;;;;;;;19.67;10.75;;;;;;;;;;4993391;28;20030;-81
2021/09/01 01:50:13;;;;;;;19.90;10.55;;;;;;;;;;5012848;28;20041;-84
2021/09/01 01:52:39;;;;;;;15.88;9.88;;;13.00;99.90;;;;;;5010113;28;20065;-82
2021/09/01 01:55:06;;;;;;;20.42;10.52;;;13.70;99.90;;;;;;4989772;28;20061;-84
2021/09/01 01:57:33;;;;;;;15.20;8.80;;;;;;;;;;5002369;28;20034;-83
2021/09/01 01:59:58;;;;;;;15.45;9.30;;;12.90;99.90;;;;;;5003332;28;20026;-85
2021/09/01 02:02:31;;;;;;;18.90;10.88;;;;;;;;;;4990406;28;20440;-84
2021/09/01 02:05:00;;;;;;;15.73;9.35;;;12.80;99.90;;;;;;4989783;28;20029;-84
2021/09/01 02:07:29;;;;;;;17.80;9.75;;;12.90;99.90;;;;;;5010792;28;20018;-83
2021/09/01 02:09:55;;;;;;;16.90;10.20;;;;;;;;;;4992984;28;20038;-82
2021/09/01 02:12:21;;;;;;;22.25;10.95;;;12.80;99.90;;;;;;5010914;28;20041;-86
2021/09/01 02:14:47;;;;;;;17.63;9.73;;;12.80;99.90;;;;;;5012967;28;20030;-82
2021/09/01 02:17:13;;;;;;;17.40;10.40;;;13.00;99.90;;;;;;4995455;28;20128;-84
2021/09/01 02:19:39;;;;;;;18.67;9.75;;;12.80;99.90;;;;;;4996691;28;20033;-79
2021/09/01 02:22:05;;;;;;;18.65;10.13;;;12.80;99.90;;;;;;5000068;28;20084;-81
2021/09/01 02:24:31;;;;;;;18.52;10.20;;;12.80;99.90;;;;;;4993566;28;20543;-85
2021/09/01 02:26:56;;;;;;;17.85;10.20;;;12.80;99.90;;;;;;4996390;28;20426;-82
2021/09/01 02:29:22;;;;;;;16.88;9.75;;;12.80;99.90;;;;;;5008439;28;20052;-81
2021/09/01 02:31:48;;;;;;;16.00;9.00;;;12.70;99.90;;;;;;4994156;28;20072;-83
2021/09/01 02:34:13;;;;;;;18.83;9.93;;;14.00;99.90;;;;;;4999219;28;20079;-83
2021/09/01 02:36:39;;;;;;;15.75;9.45;;;12.70;99.90;;;;;;4991251;28;20031;-83
2021/09/01 02:39:05;;;;;;;16.67;9.75;;;12.60;99.90;;;;;;4998973;28;20054;-82
2021/09/01 02:41:31;;;;;;;16.63;9.55;;;12.60;99.90;;;;;;4999843;28;20752;-83
2021/09/01 02:43:57;;;;;;;17.50;8.70;;;13.40;99.90;;;;;;4992232;28;20514;-81
2021/09/01 02:46:22;;;;;;;17.80;9.75;;;12.50;99.90;;;;;;4992435;28;20038;-83
2021/09/01 02:48:48;;;;;;;17.42;9.20;;;12.50;99.90;;;;;;4994584;28;20034;-83
2021/09/01 02:51:14;;;;;;;16.92;9.43;;;12.50;99.90;;;;;;5013594;28;20026;-81
2021/09/01 02:53:40;;;;;;;17.00;9.82;;;12.50;99.90;;;;;;4994193;28;20029;-84
2021/09/01 02:56:06;;;;;;;18.17;10.35;;;14.60;99.90;;;;;;5008450;28;20420;-80
2021/09/01 02:58:32;;;;;;;17.75;8.93;;;;;;;;;;4992165;28;20034;-81
2021/09/01 03:00:57;;;;;;;16.77;9.55;;;12.40;99.90;;;;;;5004990;28;20026;-82
2021/09/01 03:03:23;;;;;;;15.68;9.48;;;12.40;99.90;;;;;;4994461;28;20110;-83
2021/09/01 03:05:49;;;;;;;15.13;9.27;;;16.10;99.90;;;;;;5011598;28;20045;-84
2021/09/01 03:08:15;;;;;;;17.25;9.82;;;;;;;;;;5011655;28;20030;-85
2021/09/01 03:10:40;;;;;;;15.25;9.07;;;12.40;99.90;;;;;;5008564;28;20045;-84
2021/09/01 03:13:06;;;;;;;16.50;9.13;;;12.60;99.90;;;;;;4993494;28;20068;-80
2021/09/01 03:15:33;;;;;;;15.10;9.02;;;12.40;99.90;;;;;;4990641;28;20057;-83
2021/09/01 03:17:58;;;;;;;15.07;8.63;;;12.40;99.90;;;;;;4991597;28;20030;-79
2021/09/01 03:20:24;;;;;;;15.68;9.48;;;14.40;99.90;;;;;;4993356;28;20400;-81
2021/09/01 03:22:50;;;;;;;17.27;9.43;;;12.30;99.90;;;;;;4988700;28;20022;-81
2021/09/01 03:25:16;;;;;;;15.48;9.43;;;14.70;99.90;;;;;;4998371;28;20022;-82
2021/09/01 03:27:42;;;;;;;17.38;9.35;;;;;;;;;;5004302;28;20060;-82
2021/09/01 03:30:09;;;;;;;14.40;8.70;;;12.30;99.90;;;;;;4990686;28;20419;-83
2021/09/01 03:32:34;;;;;;;15.95;8.50;;;12.30;99.90;;;;;;5007186;28;20399;-82
2021/09/01 03:35:00;;;;;;;17.77;9.25;;;;;;;;;;4994829;28;20106;-84
2021/09/01 03:37:26;;;;;;;16.23;9.60;;;;;;;;;;5010740;28;20092;-80
2021/09/01 03:39:52;;;;;;;17.73;9.68;;;;;;;;;;5005069;28;20676;-83
2021/09/01 03:42:18;;;;;;;17.50;9.85;;;;;;;;;;4989971;28;20022;-80
2021/09/01 03:44:44;;;;;;;19.77;9.43;;;;;;;;;;5009520;28;20037;-81
2021/09/01 03:47:10;;;;;;;17.42;9.63;;;12.20;99.90;;;;;;4990736;28;20028;-84
2021/09/01 03:49:36;;;;;;;20.58;10.73;;;;;;;;;;4995026;28;20029;-83
2021/09/01 03:52:02;;;;;;;18.17;9.63;;;;;;;;;;4993702;28;20066;-82
2021/09/01 03:54:28;;;;;;;20.85;10.43;;;12.20;99.90;;;;;;5007186;28;20164;-86
2021/09/01 03:56:54;;;;;;;15.90;8.40;;;12.10;99.90;;;;;;4993501;28;20913;-81
2021/09/01 03:59:20;;;;;;;15.88;9.00;;;;;;;;;;5007015;28;20125;-87
2021/09/01 04:01:46;;;;;;;15.63;8.35;;;;;;;;;;5005013;28;20030;-81
2021/09/01 04:04:11;;;;;;;13.05;8.85;;;12.10;99.90;;;;;;5011466;28;20022;-81
2021/09/01 04:06:37;;;;;;;15.73;9.35;;;;;;;;;;4996373;28;20084;-82
2021/09/01 04:09:03;;;;;;;14.98;9.00;;;12.10;99.90;;;;;;5010901;28;20029;-82
2021/09/01 04:11:29;;;;;;;12.93;8.15;;;;;;;;;;5010189;28;20037;-81
2021/09/01 04:13:55;;;;;;;13.48;8.65;;;;;;;;;;5015051;28;20025;-82
2021/09/01 04:16:21;;;;;;;15.43;9.40;;;12.00;99.90;;;;;;4990076;28;20151;-79
2021/09/01 04:18:47;;;;;;;16.02;9.02;;;;;;;;;;4998769;28;20406;-80
2021/09/01 04:21:13;;;;;;;15.05;8.95;;;12.00;99.90;;;;;;5003099;28;20077;-82
2021/09/01 04:23:38;;;;;;;15.60;9.30;;;12.00;99.90;;;;;;5002354;28;20022;-83
2021/09/01 04:26:05;;;;;;;15.93;8.50;;;;;;;;;;5003059;28;20033;-83
2021/09/01 04:28:30;;;;;;;18.45;8.75;;;12.00;99.90;;;;;;5011263;28;20038;-85
2021/09/01 04:30:56;;;;;;;14.23;8.48;;;;;;;;;;4998049;28;20036;-82
2021/09/01 04:33:22;;;;;;;15.45;9.18;;;;;;;;;;5004127;28;20041;-81
2021/09/01 04:35:51;;;;;;;15.70;8.20;;;12.00;99.90;;;;;;4989126;28;20250;-84
2021/09/01 04:38:17;;;;;;;18.25;9.48;;;14.60;99.90;;;;;;5006149;28;20512;-85
2021/09/01 04:40:42;;;;;;;16.58;8.75;;;12.00;99.90;;;;;;4988636;28;20042;-83
2021/09/01 04:43:08;;;;;;;14.55;8.50;;;;;;;;;;4990579;28;20026;-85
2021/09/01 04:45:34;;;;;;;16.52;8.77;;;11.90;99.90;;;;;;5008013;28;20018;-81
2021/09/01 04:48:00;;;;;;;15.73;9.13;;;11.90;99.90;;;;;;5008683;28;20030;-84
2021/09/01 04:50:26;;;;;;;14.85;8.90;;;11.90;99.90;;;;;;4998175;28;21065;-84
2021/09/01 04:52:52;;;;;;;15.23;8.90;;;;;;;;;;4996167;28;20061;-85
2021/09/01 04:55:18;;;;;;;15.07;8.90;;;;;;;;;;5006650;28;20453;-85
2021/09/01 04:57:44;;;;;;;17.52;9.32;;;11.90;99.90;;;;;;5010633;28;20488;-82
2021/09/01 05:00:11;;;;;;;17.20;9.80;;;11.90;99.90;;;;;;4996553;28;20066;-82
2021/09/01 05:02:40;;;;;;;17.10;8.85;;;11.90;99.90;;;;;;4996293;28;20554;-82
2021/09/01 05:05:06;;;;;;;16.80;8.80;;;11.90;99.90;;;;;;4997083;28;20029;-85
2021/09/01 05:07:32;;;;;;;17.02;9.05;;;;;;;;;;5002639;28;20026;-81
2021/09/01 05:09:58;;;;;;;15.32;9.60;;;;;;;;;;5003081;28;20041;-81
2021/09/01 05:12:27;;;;;;;15.23;9.63;;;;;;;;;;5004682;28;20022;-82
2021/09/01 05:14:56;;;;;;;15.43;10.02;;;12.00;99.90;;;;;;5006833;28;20080;-82
2021/09/01 05:17:23;;;;;;;15.68;9.15;;;;;;;;;;4997289;28;20065;-80
2021/09/01 05:19:49;;;;;;;15.23;9.05;;;12.00;99.90;;;;;;5009921;28;20487;-83
2021/09/01 05:22:21;;;;;;;17.60;8.88;;;12.00;99.90;;;;;;4992256;28;20032;-84
2021/09/01 05:24:50;;;;;;;17.88;8.82;;;;;;;;;;5010338;28;20021;-83
2021/09/01 05:27:20;;;;;;;18.73;8.88;;;;;;;;;;5017164;28;20029;-83
2021/09/01 05:29:48;;;;;;;15.60;8.75;;;;;;;;;;5015635;28;20440;-84
2021/09/01 05:32:18;;;;;;;17.42;9.77;;;12.20;99.90;;;;;;4995503;28;20026;-81
2021/09/01 05:34:44;;;;;;;17.90;9.27;;;;;;;;;;5006229;28;20107;-81
2021/09/01 05:37:13;;;;;;;19.90;10.63;;;;;;;;;;5017597;28;20071;-81
2021/09/01 05:39:48;;;;;;;16.38;8.85;;;10.80;99.90;;;;;;5007692;28;20335;-80
2021/09/01 05:42:17;;;;;;;16.30;9.18;;;12.30;99.90;;;;;;4993181;28;20025;-83
2021/09/01 05:44:43;;;;;;;20.17;10.05;;;;;;;;;;4999561;28;20038;-82
2021/09/01 05:47:10;;;;;;;17.38;9.57;;;12.20;99.90;;;;;;4995981;28;20140;-82
2021/09/01 05:49:37;;;;;;;19.77;9.70;;;12.80;99.90;;;;;;4996755;28;20629;-83
2021/09/01 05:52:05;;;;;;;16.63;9.30;;;12.40;99.90;;;;;;4995618;28;20038;-82
2021/09/01 05:54:30;;;;;;;15.18;9.45;;;12.40;99.90;;;;;;4991802;28;20053;-83
2021/09/01 05:57:08;;;;;;;16.40;9.63;;;12.40;99.90;;;;;;4997767;28;20041;-86
2021/09/01 05:59:41;;;;;;;18.70;9.23;;;12.40;99.90;;;;;;5011443;28;20030;-81
2021/09/01 06:02:11;;;;;;;19.30;9.93;;;12.50;99.90;;;;;;5009776;28;20220;-82
2021/09/01 06:04:43;;;;;;;17.25;9.85;;;12.50;99.90;;;;;;4997412;28;20030;-83
2021/09/01 06:07:13;;;;;;;20.45;10.77;;;12.60;99.90;;;;;;4991552;28;20030;-83
2021/09/01 06:09:42;;;;;;;16.10;9.82;;;15.50;99.90;;;;;;4993497;28;20085;-80
2021/09/01 06:12:08;;;;;;;13.30;8.77;;;;;;;;;;5007892;28;20109;-80
2021/09/01 06:14:34;;;;;;;18.58;10.30;;;12.80;99.90;;;;;;4993722;28;20032;-82
2021/09/01 06:17:00;;;;;;;16.00;9.65;;;12.80;99.90;;;;;;4989162;28;20082;-82
2021/09/01 06:19:26;;;;;;;18.10;9.82;;;;;;;;;;4987181;28;20061;-81
2021/09/01 06:21:51;;;;;;;15.13;9.23;;;13.00;99.90;;;;;;4990545;28;20379;-79
2021/09/01 06:24:17;;;;;;;17.08;9.80;;;;;;;;;;4993974;28;20121;-83
2021/09/01 06:26:43;;;;;;;20.45;10.68;;;13.10;99.90;;;;;;4981564;28;20026;-78
2021/09/01 06:29:09;;;;;;;18.80;9.10;;;;;;;;;;5010486;28;20724;-80
2021/09/01 06:31:38;;;;;;;20.98;10.32;;;;;;;;;;5003369;28;20065;-80
2021/09/01 06:34:04;;;;;;;15.88;9.95;;;;;;;;;;5008051;28;20026;-81
2021/09/01 06:36:29;;;;;;;17.40;9.50;;;13.50;99.90;;;;;;4997090;28;20034;-81
2021/09/01 06:38:55;;;;;;;15.35;9.35;;;;;;;;;;4988939;28;20057;-79
2021/09/01 06:41:21;;;;;;;18.80;9.75;;;;;;;;;;4995377;28;20022;-81
2021/09/01 06:43:47;;;;;;;15.88;9.38;;;13.80;99.90;;;;;;5006464;28;20045;-78
2021/09/01 06:46:13;;;;;;;16.33;9.77;;;13.80;99.90;;;;;;5000610;28;20084;-82
2021/09/01 06:48:39;;;;;;;14.82;10.18;;;;;;;;;;4994105;28;20026;-81
2021/09/01 06:51:05;;;;;;;15.07;9.48;;;;;;;;;;5000631;28;20042;-78
2021/09/01 06:53:31;;;;;;;15.10;8.75;;;;;;;;;;5004359;28;20030;-79
2021/09/01 06:55:57;;;;;;;14.27;9.52;;;;;;;;;;5002003;28;20376;-80
2021/09/01 06:58:23;;;;;;;14.70;9.40;;;;;;;;;;4998267;28;20088;-80
2021/09/01 07:00:49;;;;;;;15.32;9.18;;;;;;;;;;5012913;28;20030;-81
2021/09/01 07:03:15;;;;;;;13.73;8.85;;;;;;;;;;5016223;28;20029;-81
2021/09/01 07:05:41;;;;;;;16.58;9.52;;;;;;;;;;4999827;28;20492;-81
2021/09/01 07:08:15;;;;;;;14.18;8.70;;;15.00;99.90;;;;;;5003522;28;20034;-82
2021/09/01 07:10:41;;;;;;;16.42;8.48;;;15.20;99.90;;;;;;4997518;28;20037;-83
2021/09/01 07:13:07;;;;;;;11.50;7.70;;;;;;;;;;5001120;28;20030;-85
2021/09/01 07:15:33;;;;;;;13.27;8.27;;;;;;;;;;5003795;28;20022;-76
2021/09/01 07:17:59;;;;;;;15.63;9.02;;;;;;;;;;5017657;28;20026;-82
2021/09/01 07:20:25;;;;;;;14.27;7.82;;;15.60;99.90;;;;;;5005595;28;20032;-83
2021/09/01 07:22:50;;;;;;;14.30;8.40;;;15.60;99.90;;;;;;5000040;28;20113;-80
2021/09/01 07:25:17;;;;;;;14.05;7.63;;;;;;;;;;5005180;28;20423;-82
2021/09/01 07:27:43;;;;;;;12.63;7.38;;;;;;;;;;5028145;28;20113;-81
2021/09/01 07:30:09;;;;;;;15.57;8.27;;;16.00;99.90;;;;;;5002359;28;20116;-81
2021/09/01 07:32:35;;;;;;;14.32;9.00;;;;;;;;;;4995651;28;20323;-81
2021/09/01 07:35:01;;;;;;;14.48;8.68;;;;;;;;;;5001867;28;20041;-80
2021/09/01 07:37:27;;;;;;;12.60;7.22;;;;;;;;;;5003276;28;20026;-82
2021/09/01 07:39:53;;;;;;;13.45;6.95;;;;;;;;;;4996890;28;20126;-83
2021/09/01 07:42:20;;;;;;;12.40;7.68;;;;;;;;;;5001484;28;20117;-80
2021/09/01 07:44:46;;;;;;;16.92;8.02;;;;;;;;;;4996319;28;20591;-82
2021/09/01 07:47:12;;;;;;;11.02;7.13;;;;;;;;;;5015670;28;20018;-82
2021/09/01 07:49:38;;;;;;;12.82;7.18;;;;;;;;;;5005851;28;20517;-81
2021/09/01 07:52:05;;;;;;;14.05;6.50;;;;;;;;;;4999145;28;20101;-79
2021/09/01 07:54:31;;;;;;;10.30;6.10;;;;;;;;;;4997722;28;20061;-80
2021/09/01 07:56:57;;;;;;;11.70;5.82;;;;;;;;;;5013649;28;20022;-83
2021/09/01 07:59:23;;;;;;;12.23;6.15;;;;;;;;;;5004842;28;20076;-82
2021/09/01 08:01:49;;;;;;;11.13;5.95;;;;;;;;;;5001996;28;20026;-83
2021/09/01 08:04:15;;;;;;;11.90;5.93;;;;;;;;;;5003956;28;20450;-83
2021/09/01 08:06:41;;;;;;;9.95;5.53;;;;;;;;;;4995368;28;20029;-83
2021/09/01 08:09:08;;;;;;;8.38;4.90;;;18.10;99.90;;;;;;4999151;28;20026;-84
2021/09/01 08:11:34;;;;;;;11.88;5.60;;;;;;;;;;4986984;28;20022;-82
2021/09/01 08:14:00;;;;;;;9.60;5.72;;;;;;;;;;5007383;28;20054;-80
2021/09/01 08:16:27;;;;;;;10.45;5.50;;;;;;;;;;5016622;28;20404;-82
2021/09/01 08:18:53;;;;;;;9.93;5.78;;;;;;;;;;5000885;28;20026;-81
2021/09/01 08:21:19;;;;;;;11.48;5.60;;;;;;;;;;4999824;28;20030;-85
2021/09/01 08:23:45;;;;;;;9.75;5.60;;;18.70;99.90;;;;;;5000171;28;20049;-84
2021/09/01 08:26:10;;;;;;;10.57;5.22;;;18.70;99.90;;;;;;4996933;28;20037;-83
2021/09/01 08:28:36;;;;;;;13.10;6.00;;;18.80;99.90;;;;;;5006055;28;20037;-83
2021/09/01 08:31:02;;;;;;;10.95;5.38;;;19.00;99.90;;;;;;5007221;28;20130;-82
2021/09/01 08:33:27;;;;;;;12.20;5.40;;;19.10;99.90;;;;;;5001550;28;20033;-81
2021/09/01 08:35:53;;;;;;;9.85;5.97;;;;;;;;;;5010641;28;20033;-82
2021/09/01 08:38:19;;;;;;;11.15;5.50;;;;;;;;;;5003487;28;20045;-82
2021/09/01 08:40:48;;;;;;;9.50;5.50;;;19.20;99.90;;;;;;4998377;28;20084;-83
2021/09/01 08:43:17;;;;;;;9.15;5.10;;;19.30;99.90;;;;;;5003948;28;20471;-82
2021/09/01 08:45:45;;;;;;;11.73;5.13;;;19.30;99.90;;;;;;5006567;28;20040;-84
2021/09/01 08:48:11;;;;;;;8.55;4.50;;;;;;;;;;5005285;28;20276;-86
2021/09/01 08:50:38;;;;;;;10.07;5.30;;;;;;;;;;5003622;28;20534;-84
2021/09/01 08:53:03;;;;;;;12.50;4.80;;;19.40;99.90;;;;;;5007705;28;20068;-82
2021/09/01 08:55:29;;;;;;;12.10;5.15;;;;;;;;;;5005353;28;20033;-83
2021/09/01 08:57:55;;;;;;;10.30;4.72;;;;;;;;;;4997050;28;20551;-81
2021/09/01 09:00:21;;;;;;;9.80;4.88;;;;;;;;;;4996214;28;20037;-81
2021/09/01 09:02:58;;;;;;;10.90;4.95;;;19.90;99.60;;;;;;5007719;28;20049;-82
2021/09/01 09:05:33;;;;;;;7.63;4.82;;;20.10;99.50;;;;;;4999138;28;20033;-85
2021/09/01 09:07:59;;;;;;;8.55;4.63;;;;;;;;;;5000934;28;20025;-84
2021/09/01 09:10:39;;;;;;;6.68;4.28;;;20.10;99.30;;;;;;5015415;28;20184;-83
2021/09/01 09:13:08;;;;;;;9.25;4.25;;;20.10;99.50;;;;;;5012562;28;20054;-81
2021/09/01 09:15:35;;;;;;;18.60;5.37;;;;;;;;;;5004721;28;20176;-83
2021/09/01 09:18:02;;;;;;;8.73;4.78;;;20.10;99.00;;;;;;5000768;28;20269;-81
2021/09/01 09:20:32;;;;;;;7.88;4.15;;;20.20;98.70;;;;;;5003344;28;20054;-82
2021/09/01 09:22:58;;;;;;;10.63;4.65;;;;;;;;;;5001782;28;20026;-81
2021/09/01 09:25:31;;;;;;;8.40;4.28;;;20.30;98.50;;;;;;4999985;28;20053;-83
2021/09/01 09:28:05;;;;;;;8.40;4.47;;;20.40;99.90;;;;;;5004569;28;20030;-82
2021/09/01 09:30:36;;;;;;;7.65;4.68;;;20.60;98.00;;;;;;5001429;28;20083;-81
2021/09/01 09:33:18;;;;;;;7.45;4.53;;;20.60;97.90;;;;;;5004269;28;20030;-80
2021/09/01 09:36:03;;;;;;;7.72;4.35;;;20.60;98.10;;;;;;5013888;28;20121;-80
2021/09/01 09:38:41;;;;;;;8.32;4.57;;;20.80;97.90;;;;;;4995772;28;20030;-83
2021/09/01 09:41:29;;;;;;;7.57;3.92;;;20.80;97.60;;;;;;4995134;28;20065;-81
2021/09/01 09:43:58;;;;;;;6.03;3.90;;;20.80;97.40;;;;;;4999047;28;20037;-82
2021/09/01 09:46:25;;;;;;;10.13;3.95;;;20.80;97.30;;;;;;5001222;28;20048;-82
2021/09/01 09:48:52;;;;;;;9.13;4.60;;;;;;;;;;5001535;28;20172;-83
2021/09/01 09:51:38;;;;;;;10.90;4.68;;;21.00;96.40;;;;;;4999942;28;20541;-80
2021/09/01 09:54:33;;;;;;;8.50;3.88;;;21.10;96.40;;;;;;5004451;28;20026;-83
2021/09/01 09:57:07;;;;;;;7.57;4.30;;;21.10;96.20;;;;;;4977204;28;20038;-81
2021/09/01 09:59:34;;;;;;;8.25;4.30;;;21.20;96.10;;;;;;4993278;28;20511;-79
2021/09/01 10:02:00;;;;;;;7.38;4.05;;;;;;;;;;5001838;28;20484;-81
2021/09/01 10:04:28;;;;;;;8.15;4.05;;;21.50;95.80;;;;;;5010569;28;20120;-80
2021/09/01 10:06:54;;;;;;;9.38;4.45;;;;;;;;;;5001813;28;20117;-80
2021/09/01 10:09:20;;;;;;;8.85;4.70;;;;;;;;;;5003823;28;20424;-82
2021/09/01 10:11:48;;;;;;;6.22;3.75;;;21.50;95.20;;;;;;5004646;28;20042;-81
2021/09/01 10:14:22;;;;;;;9.07;4.25;;;21.50;95.50;;;;;;5008053;28;20445;-79
2021/09/01 10:17:10;;;;;;;8.95;4.15;;;21.60;95.30;;;;;;4997925;28;20026;-83
2021/09/01 10:19:37;;;;;;;11.57;4.85;;;21.70;94.70;;;;;;5010768;28;20085;-81
2021/09/01 10:22:06;;;;;;;10.30;4.50;;;21.50;95.10;;;;;;5004814;28;20112;-80
2021/09/01 10:24:37;;;;;;;6.80;4.07;;;21.60;95.20;;;;;;4995549;28;20048;-82
2021/09/01 10:27:14;;;;;;;11.27;4.60;;;21.80;94.80;;;;;;4999446;28;20455;-81
2021/09/01 10:30:02;;;;;;;7.82;4.35;;;22.00;94.50;;;;;;5007391;28;20030;-79
2021/09/01 10:32:28;;;;;;;8.93;4.30;;;;;;;;;;4998093;28;20042;-80
2021/09/01 10:35:12;;;;;;;7.80;4.38;;;22.20;94.10;;;;;;5001825;28;20088;-83
2021/09/01 10:37:43;;;;;;;7.30;4.50;;;22.30;93.70;;;;;;5005860;28;20033;-79
2021/09/01 10:40:21;;;;;;;6.60;4.22;;;22.30;93.90;;;;;;5000567;28;20049;-81
2021/09/01 10:42:49;;;;;;;6.88;4.10;;;22.40;94.10;;;;;;5017750;28;20496;-80
2021/09/01 10:45:34;;;;;;;7.45;3.78;;;22.40;93.80;;;;;;5011691;28;20025;-79
2021/09/01 10:48:03;;;;;;;7.47;4.45;;;22.60;93.30;;;;;;4988718;28;20033;-80
2021/09/01 10:50:29;;;;;;;7.95;4.15;;;;;;;;;;5014986;28;20030;-80
2021/09/01 10:53:18;;;;;;;7.00;4.40;;;22.60;93.10;;;;;;5001044;28;20053;-82
2021/09/01 10:55:55;;;;;;;7.37;4.07;;;22.20;94.50;;;;;;5003873;28;20363;-81
2021/09/01 10:58:31;;;;;;;7.63;4.25;;;22.30;93.80;;;;;;4990453;28;20376;-80
2021/09/01 11:01:08;;;;;;;7.85;4.15;;;21.40;93.10;;;;;;5019616;28;20029;-81
2021/09/01 11:03:39;;;;;;;7.85;4.30;;;22.70;92.50;;;;;;5000995;28;20034;-79
2021/09/01 11:06:25;;;;;;;5.93;3.65;;;22.80;92.80;;;;;;4997798;28;20034;-80
2021/09/01 11:09:05;;;;;;;7.53;3.20;;;22.70;91.90;;;;;;5010357;28;20048;-79
2021/09/01 11:11:51;;;;;;;8.40;4.57;;;22.70;91.90;;;;;;4997829;28;20048;-77
2021/09/01 11:14:39;;;;;;;10.10;4.75;;;22.60;92.40;;;;;;5005242;28;20089;-80
2021/09/01 11:17:10;;;;;;;10.90;4.38;;;22.60;92.90;;;;;;5003074;28;20412;-78
2021/09/01 11:19:37;;;;;;;6.20;3.75;;;22.50;92.10;;;;;;4990097;28;20091;-79
2021/09/01 11:22:06;;;;;;;7.07;3.80;;;22.50;92.20;;;;;;4993821;28;20384;-82
2021/09/01 11:24:48;;;;;;;6.30;3.83;;;22.60;91.20;;;;;;5003302;28;20037;-79
2021/09/01 11:27:16;;;;;;;6.72;3.83;;;22.80;91.30;;;;;;5003205;28;20109;-80
2021/09/01 11:29:42;;;;;;;7.07;3.92;;;22.70;91.50;;;;;;4994026;28;20034;-80
2021/09/01 11:32:08;;;;;;;8.30;4.10;;;;;;;;;;4995250;28;20444;-80
2021/09/01 11:34:34;;;;;;;11.13;4.32;;;;;;;;;;4997178;28;20034;-78
2021/09/01 11:37:02;;;;;;;8.20;3.80;;;;;;;;;;5008418;28;20080;-80
2021/09/01 11:39:28;;;;;;;9.07;4.00;;;;;;;;;;5009884;28;20088;-81
2021/09/01 11:42:02;;;;;;;7.05;4.13;;;23.10;90.70;;;;;;5013374;28;20109;-78
2021/09/01 11:44:28;;;;;;;7.63;4.15;;;23.10;90.80;;;;;;4997397;28;20037;-80
2021/09/01 11:46:54;;;;;;;12.02;4.13;;;;;;;;;;4998655;28;20026;-80
2021/09/01 11:49:20;;;;;;;6.82;3.92;;;;;;;;;;5003184;28;20410;-79
2021/09/01 11:51:47;;;;;;;9.13;4.15;;;;;;;;;;5015414;28;20026;-80
2021/09/01 11:54:14;;;;;;;7.38;3.78;;;23.40;90.10;;;;;;5014662;28;20026;-80
2021/09/01 11:56:40;;;;;;;8.25;3.95;;;;;;;;;;4988209;28;20052;-77
2021/09/01 11:59:08;;;;;;;6.10;3.40;;;23.80;87.30;;;;;;5011653;28;20026;-81
2021/09/01 12:01:52;;;;;;;9.75;4.10;;;23.30;87.30;;;;;;4996261;28;20041;-78
2021/09/01 12:04:19;;;;;;;11.05;4.65;;;23.40;87.60;;;;;;5001863;28;20022;-81
2021/09/01 12:06:51;;;;;;;9.43;4.00;;;23.40;86.70;;;;;;5003947;28;20045;-79
2021/09/01 12:09:20;;;;;;;7.75;3.78;;;23.40;87.20;;;;;;4995199;28;20038;-82
2021/09/01 12:12:06;;;;;;;9.68;4.30;;;23.20;86.00;;;;;;4991547;28;20030;-80
2021/09/01 12:14:33;;;;;;;8.05;3.20;;;23.40;86.50;;;;;;5001330;28;20034;-80
2021/09/01 12:17:34;;;;;;;7.07;3.58;;;23.50;85.40;;;;;;4992985;28;20064;-81
2021/09/01 12:20:00;;;;;;;5.00;3.17;;;23.50;84.00;;;;;;4958361;28;20476;-81
2021/09/01 12:22:40;;;;;;;6.93;3.50;;;23.50;83.40;;;;;;4977786;28;20044;-78
2021/09/01 12:25:08;;;;;;;6.53;3.58;;;23.50;82.40;;;;;;4992906;28;20381;-80
2021/09/01 12:27:36;;;;;;;6.50;3.50;;;23.60;82.70;;;;;;4992610;28;20027;-81
2021/09/01 12:30:03;;;;;;;6.05;3.30;;;23.70;82.80;;;;;;4993523;28;20030;-80
2021/09/01 12:32:29;;;;;;;6.38;3.53;;;;;;;;;;4992350;28;20029;-79
2021/09/01 12:34:59;;;;;;;5.78;3.25;;;23.60;82.20;;;;;;4997239;28;20034;-79
2021/09/01 12:37:28;;;;;;;7.70;3.20;;;23.60;82.60;;;;;;4996289;28;20400;-82
2021/09/01 12:40:08;;;;;;;5.07;3.22;;;23.60;82.60;;;;;;4993987;28;20128;-80
2021/09/01 12:42:43;;;;;;;6.68;3.10;;;23.80;82.60;;;;;;4996635;28;20044;-79
2021/09/01 12:45:29;;;;;;;4.55;2.97;;;24.70;82.10;;;;;;5000958;28;20033;-79
2021/09/01 12:48:00;;;;;;;10.68;3.33;;;23.80;81.60;;;;;;5000182;28;20033;-81
2021/09/01 12:50:36;;;;;;;6.38;2.92;;;24.00;81.60;;;;;;4993626;28;20022;-83
2021/09/01 12:53:03;;;;;;;7.55;3.05;;;23.90;80.80;;;;;;4993296;28;20105;-79
2021/09/01 12:55:37;;;;;;;5.72;3.40;;;23.80;81.20;;;;;;4996550;28;20148;-79
2021/09/01 12:58:03;;;;;;;5.45;3.40;;;23.70;81.50;;;;;;4994017;28;20034;-79
2021/09/01 13:00:29;;;;;;;7.15;3.35;;;;;;;;;;4988085;28;20033;-81
2021/09/01 13:02:55;;;;;;;4.60;3.05;;;;;;;;;;5006846;28;20045;-80
2021/09/01 13:05:21;;;;;;;5.60;3.28;;;;;;;;;;5013475;28;20022;-81
2021/09/01 13:07:48;;;;;;;5.00;3.45;;;;;;;;;;5008879;28;20037;-80
2021/09/01 13:10:15;;;;;;;6.35;4.00;;;23.90;80.60;;;;;;5009796;28;20558;-81
2021/09/01 13:12:41;;;;;;;5.95;3.75;;;;;;;;;;4991084;28;20121;-80
2021/09/01 13:15:09;;;;;;;6.03;3.40;;;23.50;81.60;;;;;;4997313;28;20029;-79
2021/09/01 13:17:43;;;;;;;14.55;4.55;;;23.50;81.90;;;;;;4992519;28;20034;-79
2021/09/01 13:20:09;;;;;;;6.13;3.42;;;23.10;83.00;;;;;;4994418;28;20388;-80
2021/09/01 13:22:36;;;;;;;5.53;3.22;;;23.10;83.00;;;;;;4987913;28;20030;-80
2021/09/01 13:25:03;;;;;;;8.00;3.13;;;23.40;81.30;;;;;;4994485;28;20327;-79